sensor_id;sensor_type;location;lat;lon;timestamp;P1;durP1;ratioP1;P2;durP2;ratioP2
78013;SDS011;67222;50.182;8.734;2023-09-18T04:32:55;8.63;;;4.57;;
78013;SDS011;67222;50.182;8.734;2023-09-18T04:35:20;6.93;;;4.00;;
78013;SDS011;67222;50.182;8.734;2023-09-18T04:37:45;5.80;;;4.00;;
78013;SDS011;67222;50.182;8.734;2023-09-18T04:40:11;6.73;;;4.47;;
78013;SDS011;67222;50.182;8.734;2023-09-18T04:42:37;8.68;;;4.88;;
78013;SDS011;67222;50.182;8.734;2023-09-18T04:45:03;7.70;;;4.55;;
78013;SDS011;67222;50.182;8.734;2023-09-18T04:47:30;9.25;;;4.55;;
78013;SDS011;67222;50.182;8.734;2023-09-18T04:49:55;11.33;;;4.47;;
78013;SDS011;67222;50.182;8.734;2023-09-18T04:52:20;6.70;;;4.47;;
78013;SDS011;67222;50.182;8.734;2023-09-18T04:54:46;7.00;;;3.97;;
78013;SDS011;67222;50.182;8.734;2023-09-18T04:57:11;7.37;;;4.63;;
78013;SDS011;67222;50.182;8.734;2023-09-18T04:59:36;6.63;;;4.17;;
78013;SDS011;67222;50.182;8.734;2023-09-18T05:02:01;7.47;;;4.20;;
78013;SDS011;67222;50.182;8.734;2023-09-18T05:04:27;7.15;;;4.72;;
78013;SDS011;67222;50.182;8.734;2023-09-18T05:06:53;6.72;;;4.30;;
78013;SDS011;67222;50.182;8.734;2023-09-18T05:09:18;11.40;;;4.63;;
78013;SDS011;67222;50.182;8.734;2023-09-18T05:11:44;6.95;;;4.15;;
78013;SDS011;67222;50.182;8.734;2023-09-18T05:14:09;7.00;;;4.30;;
78013;SDS011;67222;50.182;8.734;2023-09-18T05:16:35;7.67;;;4.60;;
78013;SDS011;67222;50.182;8.734;2023-09-18T05:19:00;8.07;;;4.23;;
78013;SDS011;67222;50.182;8.734;2023-09-18T05:21:25;5.60;;;3.90;;
78013;SDS011;67222;50.182;8.734;2023-09-18T05:23:51;8.55;;;4.55;;
78013;SDS011;67222;50.182;8.734;2023-09-18T05:26:18;8.60;;;4.55;;
78013;SDS011;67222;50.182;8.734;2023-09-18T05:28:44;6.70;;;3.80;;
78013;SDS011;67222;50.182;8.734;2023-09-18T05:31:09;10.48;;;4.80;;
78013;SDS011;67222;50.182;8.734;2023-09-18T05:33:34;7.43;;;4.70;;
78013;SDS011;67222;50.182;8.734;2023-09-18T05:35:59;7.77;;;4.60;;
78013;SDS011;67222;50.182;8.734;2023-09-18T05:38:25;8.97;;;4.80;;
78013;SDS011;67222;50.182;8.734;2023-09-18T05:40:50;5.93;;;4.40;;
78013;SDS011;67222;50.182;8.734;2023-09-18T05:43:15;6.23;;;4.37;;
78013;SDS011;67222;50.182;8.734;2023-09-18T05:45:41;6.67;;;4.00;;
78013;SDS011;67222;50.182;8.734;2023-09-18T05:48:06;8.38;;;4.15;;
78013;SDS011;67222;50.182;8.734;2023-09-18T05:50:32;7.38;;;4.43;;
78013;SDS011;67222;50.182;8.734;2023-09-18T05:53:00;6.82;;;4.00;;
78013;SDS011;67222;50.182;8.734;2023-09-18T05:55:28;9.63;;;4.13;;
78013;SDS011;67222;50.182;8.734;2023-09-18T05:57:54;8.18;;;4.35;;
78013;SDS011;67222;50.182;8.734;2023-09-18T06:00:20;6.93;;;3.93;;
78013;SDS011;67222;50.182;8.734;2023-09-18T06:02:46;8.85;;;3.50;;
78013;SDS011;67222;50.182;8.734;2023-09-18T06:05:13;9.00;;;3.50;;
78013;SDS011;67222;50.182;8.734;2023-09-18T06:07:40;8.75;;;3.83;;
78013;SDS011;67222;50.182;8.734;2023-09-18T06:10:06;9.15;;;4.55;;
78013;SDS011;67222;50.182;8.734;2023-09-18T06:12:32;9.55;;;3.33;;
78013;SDS011;67222;50.182;8.734;2023-09-18T06:14:57;7.43;;;3.00;;
78013;SDS011;67222;50.182;8.734;2023-09-18T06:17:23;8.60;;;2.67;;
78013;SDS011;67222;50.182;8.734;2023-09-18T06:19:49;11.18;;;3.30;;
78013;SDS011;67222;50.182;8.734;2023-09-18T06:22:14;7.45;;;3.00;;
78013;SDS011;67222;50.182;8.734;2023-09-18T06:24:40;7.60;;;2.63;;
78013;SDS011;67222;50.182;8.734;2023-09-18T06:27:05;8.45;;;3.05;;
78013;SDS011;67222;50.182;8.734;2023-09-18T06:29:34;7.10;;;2.88;;
78013;SDS011;67222;50.182;8.734;2023-09-18T06:32:00;7.20;;;2.88;;
78013;SDS011;67222;50.182;8.734;2023-09-18T06:34:26;6.97;;;2.65;;
78013;SDS011;67222;50.182;8.734;2023-09-18T06:36:53;10.13;;;3.03;;
78013;SDS011;67222;50.182;8.734;2023-09-18T06:39:18;6.43;;;2.83;;
78013;SDS011;67222;50.182;8.734;2023-09-18T06:41:45;8.48;;;2.85;;
78013;SDS011;67222;50.182;8.734;2023-09-18T06:44:10;8.95;;;3.10;;
78013;SDS011;67222;50.182;8.734;2023-09-18T06:46:35;6.67;;;2.57;;
78013;SDS011;67222;50.182;8.734;2023-09-18T06:49:01;9.47;;;3.27;;
78013;SDS011;67222;50.182;8.734;2023-09-18T06:51:27;8.18;;;2.80;;
78013;SDS011;67222;50.182;8.734;2023-09-18T06:53:55;6.97;;;2.72;;
78013;SDS011;67222;50.182;8.734;2023-09-18T06:56:22;7.90;;;2.80;;
78013;SDS011;67222;50.182;8.734;2023-09-18T06:58:50;7.97;;;2.35;;
78013;SDS011;67222;50.182;8.734;2023-09-18T07:01:17;11.55;;;2.95;;
78013;SDS011;67222;50.182;8.734;2023-09-18T07:03:44;7.65;;;3.20;;
78013;SDS011;67222;50.182;8.734;2023-09-18T07:06:11;8.25;;;2.65;;
78013;SDS011;67222;50.182;8.734;2023-09-18T07:08:38;5.22;;;2.90;;
78013;SDS011;67222;50.182;8.734;2023-09-18T07:11:03;10.85;;;2.65;;
78013;SDS011;67222;50.182;8.734;2023-09-18T07:13:28;7.07;;;2.22;;
78013;SDS011;67222;50.182;8.734;2023-09-18T07:15:54;6.37;;;2.70;;
78013;SDS011;67222;50.182;8.734;2023-09-18T07:18:19;5.03;;;2.00;;
78013;SDS011;67222;50.182;8.734;2023-09-18T07:20:44;5.40;;;2.30;;
78013;SDS011;67222;50.182;8.734;2023-09-18T07:23:10;7.68;;;2.35;;
78013;SDS011;67222;50.182;8.734;2023-09-18T07:25:35;6.90;;;2.43;;
78013;SDS011;67222;50.182;8.734;2023-09-18T07:28:03;7.95;;;2.88;;
78013;SDS011;67222;50.182;8.734;2023-09-18T07:30:31;6.60;;;2.45;;
78013;SDS011;67222;50.182;8.734;2023-09-18T07:32:57;8.10;;;2.70;;
78013;SDS011;67222;50.182;8.734;2023-09-18T07:35:22;8.52;;;2.50;;
78013;SDS011;67222;50.182;8.734;2023-09-18T07:37:48;6.72;;;2.78;;
78013;SDS011;67222;50.182;8.734;2023-09-18T07:40:14;10.87;;;3.10;;
78013;SDS011;67222;50.182;8.734;2023-09-18T07:42:40;6.97;;;2.28;;
78013;SDS011;67222;50.182;8.734;2023-09-18T07:45:06;8.27;;;2.75;;
78013;SDS011;67222;50.182;8.734;2023-09-18T07:47:32;5.38;;;2.53;;
78013;SDS011;67222;50.182;8.734;2023-09-18T07:49:57;7.65;;;2.42;;
78013;SDS011;67222;50.182;8.734;2023-09-18T07:52:22;10.07;;;2.20;;
78013;SDS011;67222;50.182;8.734;2023-09-18T07:54:47;10.57;;;2.77;;
78013;SDS011;67222;50.182;8.734;2023-09-18T07:57:13;7.90;;;2.53;;
78013;SDS011;67222;50.182;8.734;2023-09-18T07:59:38;8.65;;;2.35;;
78013;SDS011;67222;50.182;8.734;2023-09-18T08:02:05;7.25;;;2.30;;
78013;SDS011;67222;50.182;8.734;2023-09-18T08:04:31;9.70;;;2.78;;
78013;SDS011;67222;50.182;8.734;2023-09-18T08:06:57;6.65;;;2.15;;
78013;SDS011;67222;50.182;8.734;2023-09-18T08:09:22;4.57;;;1.90;;
78013;SDS011;67222;50.182;8.734;2023-09-18T08:11:48;6.47;;;2.67;;
78013;SDS011;67222;50.182;8.734;2023-09-18T08:14:14;9.85;;;2.38;;
78013;SDS011;67222;50.182;8.734;2023-09-18T08:16:40;7.15;;;2.50;;
78013;SDS011;67222;50.182;8.734;2023-09-18T08:19:05;6.60;;;2.57;;
78013;SDS011;67222;50.182;8.734;2023-09-18T08:21:32;5.50;;;2.05;;
78013;SDS011;67222;50.182;8.734;2023-09-18T08:23:57;9.00;;;2.40;;
78013;SDS011;67222;50.182;8.734;2023-09-18T08:26:22;5.77;;;2.97;;
78013;SDS011;67222;50.182;8.734;2023-09-18T08:28:50;5.90;;;2.50;;
78013;SDS011;67222;50.182;8.734;2023-09-18T08:31:15;5.67;;;2.63;;
78013;SDS011;67222;50.182;8.734;2023-09-18T08:33:43;9.65;;;2.42;;
78013;SDS011;67222;50.182;8.734;2023-09-18T08:36:09;6.83;;;2.30;;
78013;SDS011;67222;50.182;8.734;2023-09-18T08:38:34;6.40;;;1.92;;
78013;SDS011;67222;50.182;8.734;2023-09-18T08:41:00;5.20;;;2.22;;
78013;SDS011;67222;50.182;8.734;2023-09-18T08:43:25;8.75;;;2.67;;
78013;SDS011;67222;50.182;8.734;2023-09-18T08:45:52;6.03;;;2.20;;
78013;SDS011;67222;50.182;8.734;2023-09-18T08:48:19;7.35;;;2.05;;
78013;SDS011;67222;50.182;8.734;2023-09-18T08:50:45;8.63;;;2.80;;
78013;SDS011;67222;50.182;8.734;2023-09-18T08:53:12;9.85;;;2.65;;
78013;SDS011;67222;50.182;8.734;2023-09-18T08:55:38;7.28;;;2.05;;
78013;SDS011;67222;50.182;8.734;2023-09-18T08:58:03;5.80;;;1.90;;
78013;SDS011;67222;50.182;8.734;2023-09-18T09:00:29;6.63;;;1.88;;
78013;SDS011;67222;50.182;8.734;2023-09-18T09:02:54;10.75;;;2.00;;
78013;SDS011;67222;50.182;8.734;2023-09-18T09:05:23;6.15;;;1.92;;
78013;SDS011;67222;50.182;8.734;2023-09-18T09:07:49;6.75;;;1.98;;
78013;SDS011;67222;50.182;8.734;2023-09-18T09:10:15;5.53;;;1.77;;
78013;SDS011;67222;50.182;8.734;2023-09-18T09:15:23;6.03;;;1.73;;
78013;SDS011;67222;50.182;8.734;2023-09-18T09:17:52;7.28;;;1.90;;
78013;SDS011;67222;50.182;8.734;2023-09-18T09:20:27;5.78;;;1.90;;
78013;SDS011;67222;50.182;8.734;2023-09-18T09:22:55;6.57;;;1.90;;
78013;SDS011;67222;50.182;8.734;2023-09-18T09:25:26;6.97;;;2.03;;
78013;SDS011;67222;50.182;8.734;2023-09-18T09:30:21;5.30;;;1.58;;
78013;SDS011;67222;50.182;8.734;2023-09-18T09:32:48;6.45;;;2.05;;
78013;SDS011;67222;50.182;8.734;2023-09-18T09:35:34;5.70;;;1.80;;
78013;SDS011;67222;50.182;8.734;2023-09-18T09:38:02;4.43;;;1.60;;
78013;SDS011;67222;50.182;8.734;2023-09-18T09:40:33;6.00;;;2.08;;
78013;SDS011;67222;50.182;8.734;2023-09-18T09:43:00;5.15;;;1.77;;
78013;SDS011;67222;50.182;8.734;2023-09-18T09:45:29;4.30;;;1.50;;
78013;SDS011;67222;50.182;8.734;2023-09-18T09:48:00;4.28;;;1.50;;
78013;SDS011;67222;50.182;8.734;2023-09-18T09:50:25;5.70;;;1.98;;
78013;SDS011;67222;50.182;8.734;2023-09-18T09:52:51;5.87;;;1.73;;
78013;SDS011;67222;50.182;8.734;2023-09-18T09:57:50;3.30;;;1.27;;
78013;SDS011;67222;50.182;8.734;2023-09-18T10:00:23;4.30;;;1.83;;
78013;SDS011;67222;50.182;8.734;2023-09-18T10:02:56;6.50;;;1.52;;
78013;SDS011;67222;50.182;8.734;2023-09-18T10:05:24;4.68;;;1.25;;
78013;SDS011;67222;50.182;8.734;2023-09-18T10:07:52;6.30;;;1.73;;
78013;SDS011;67222;50.182;8.734;2023-09-18T10:10:19;5.35;;;1.52;;
78013;SDS011;67222;50.182;8.734;2023-09-18T10:12:45;4.32;;;1.40;;
78013;SDS011;67222;50.182;8.734;2023-09-18T10:15:14;4.50;;;1.38;;
78013;SDS011;67222;50.182;8.734;2023-09-18T10:17:42;3.58;;;1.10;;
78013;SDS011;67222;50.182;8.734;2023-09-18T10:20:14;2.70;;;1.00;;
78013;SDS011;67222;50.182;8.734;2023-09-18T10:22:53;3.45;;;0.88;;
78013;SDS011;67222;50.182;8.734;2023-09-18T10:25:21;3.45;;;0.90;;
78013;SDS011;67222;50.182;8.734;2023-09-18T10:27:50;4.88;;;1.40;;
78013;SDS011;67222;50.182;8.734;2023-09-18T10:30:23;5.15;;;0.90;;
78013;SDS011;67222;50.182;8.734;2023-09-18T10:32:50;4.13;;;1.00;;
78013;SDS011;67222;50.182;8.734;2023-09-18T10:35:17;2.78;;;1.00;;
78013;SDS011;67222;50.182;8.734;2023-09-18T10:37:45;2.35;;;0.85;;
78013;SDS011;67222;50.182;8.734;2023-09-18T10:40:11;3.17;;;1.02;;
78013;SDS011;67222;50.182;8.734;2023-09-18T10:42:37;6.78;;;0.80;;
78013;SDS011;67222;50.182;8.734;2023-09-18T10:45:04;3.75;;;0.93;;
78013;SDS011;67222;50.182;8.734;2023-09-18T10:47:31;4.05;;;1.33;;
78013;SDS011;67222;50.182;8.734;2023-09-18T10:49:58;4.80;;;1.15;;
78013;SDS011;67222;50.182;8.734;2023-09-18T10:52:23;3.17;;;0.70;;
78013;SDS011;67222;50.182;8.734;2023-09-18T10:54:49;2.95;;;0.80;;
78013;SDS011;67222;50.182;8.734;2023-09-18T10:57:14;3.97;;;1.20;;
78013;SDS011;67222;50.182;8.734;2023-09-18T10:59:43;2.80;;;0.77;;
78013;SDS011;67222;50.182;8.734;2023-09-18T11:02:09;2.75;;;0.60;;
78013;SDS011;67222;50.182;8.734;2023-09-18T11:04:35;4.07;;;0.90;;
78013;SDS011;67222;50.182;8.734;2023-09-18T11:07:01;4.22;;;1.17;;
78013;SDS011;67222;50.182;8.734;2023-09-18T11:09:28;4.22;;;0.90;;
78013;SDS011;67222;50.182;8.734;2023-09-18T11:14:29;2.53;;;0.82;;
78013;SDS011;67222;50.182;8.734;2023-09-18T11:17:05;1.63;;;0.75;;
78013;SDS011;67222;50.182;8.734;2023-09-18T11:19:31;1.77;;;0.80;;
78013;SDS011;67222;50.182;8.734;2023-09-18T11:22:06;2.85;;;0.98;;
78013;SDS011;67222;50.182;8.734;2023-09-18T11:24:32;3.00;;;1.00;;
78013;SDS011;67222;50.182;8.734;2023-09-18T11:26:58;3.27;;;0.83;;
78013;SDS011;67222;50.182;8.734;2023-09-18T11:29:23;2.30;;;0.80;;
78013;SDS011;67222;50.182;8.734;2023-09-18T11:31:55;3.63;;;1.00;;
78013;SDS011;67222;50.182;8.734;2023-09-18T11:34:29;2.50;;;0.85;;
78013;SDS011;67222;50.182;8.734;2023-09-18T11:37:01;3.13;;;0.80;;
78013;SDS011;67222;50.182;8.734;2023-09-18T11:39:43;2.40;;;0.77;;
78013;SDS011;67222;50.182;8.734;2023-09-18T11:42:28;4.15;;;1.05;;
78013;SDS011;67222;50.182;8.734;2023-09-18T11:44:53;2.67;;;0.90;;
78013;SDS011;67222;50.182;8.734;2023-09-18T11:47:22;3.25;;;1.20;;
78013;SDS011;67222;50.182;8.734;2023-09-18T11:49:53;4.07;;;0.95;;
78013;SDS011;67222;50.182;8.734;2023-09-18T11:52:23;3.80;;;1.08;;
78013;SDS011;67222;50.182;8.734;2023-09-18T11:54:54;2.28;;;0.77;;
78013;SDS011;67222;50.182;8.734;2023-09-18T11:57:21;1.83;;;0.70;;
78013;SDS011;67222;50.182;8.734;2023-09-18T11:59:46;2.67;;;0.80;;
78013;SDS011;67222;50.182;8.734;2023-09-18T12:02:12;4.47;;;1.25;;
78013;SDS011;67222;50.182;8.734;2023-09-18T12:04:45;1.75;;;0.70;;
78013;SDS011;67222;50.182;8.734;2023-09-18T12:07:12;1.83;;;0.70;;
78013;SDS011;67222;50.182;8.734;2023-09-18T12:09:38;2.25;;;0.95;;
78013;SDS011;67222;50.182;8.734;2023-09-18T12:12:07;3.47;;;1.10;;
78013;SDS011;67222;50.182;8.734;2023-09-18T12:14:33;5.85;;;1.38;;
78013;SDS011;67222;50.182;8.734;2023-09-18T12:17:00;3.33;;;0.88;;
78013;SDS011;67222;50.182;8.734;2023-09-18T12:19:27;2.42;;;0.80;;
78013;SDS011;67222;50.182;8.734;2023-09-18T12:21:53;3.30;;;0.80;;
78013;SDS011;67222;50.182;8.734;2023-09-18T12:24:21;2.77;;;0.93;;
78013;SDS011;67222;50.182;8.734;2023-09-18T12:26:47;3.58;;;1.00;;
78013;SDS011;67222;50.182;8.734;2023-09-18T12:29:13;2.88;;;0.90;;
78013;SDS011;67222;50.182;8.734;2023-09-18T12:31:39;2.85;;;0.93;;
78013;SDS011;67222;50.182;8.734;2023-09-18T12:34:05;3.72;;;0.98;;
78013;SDS011;67222;50.182;8.734;2023-09-18T12:36:42;3.08;;;0.90;;
78013;SDS011;67222;50.182;8.734;2023-09-18T12:39:08;1.77;;;0.93;;
78013;SDS011;67222;50.182;8.734;2023-09-18T12:41:35;3.03;;;1.08;;
78013;SDS011;67222;50.182;8.734;2023-09-18T12:44:01;3.42;;;1.08;;
78013;SDS011;67222;50.182;8.734;2023-09-18T12:46:28;3.30;;;1.02;;
78013;SDS011;67222;50.182;8.734;2023-09-18T12:48:54;2.03;;;1.15;;
78013;SDS011;67222;50.182;8.734;2023-09-18T12:51:28;4.10;;;1.50;;
78013;SDS011;67222;50.182;8.734;2023-09-18T12:53:59;3.92;;;1.30;;
78013;SDS011;67222;50.182;8.734;2023-09-18T12:56:25;2.65;;;1.40;;
78013;SDS011;67222;50.182;8.734;2023-09-18T12:58:51;2.85;;;0.80;;
78013;SDS011;67222;50.182;8.734;2023-09-18T13:01:16;2.38;;;0.90;;
78013;SDS011;67222;50.182;8.734;2023-09-18T13:03:42;3.22;;;1.20;;
78013;SDS011;67222;50.182;8.734;2023-09-18T13:06:09;5.32;;;1.45;;
78013;SDS011;67222;50.182;8.734;2023-09-18T13:08:36;1.67;;;0.93;;
78013;SDS011;67222;50.182;8.734;2023-09-18T13:11:02;3.50;;;0.93;;
78013;SDS011;67222;50.182;8.734;2023-09-18T13:13:31;3.58;;;0.90;;
78013;SDS011;67222;50.182;8.734;2023-09-18T13:15:57;4.20;;;0.80;;
78013;SDS011;67222;50.182;8.734;2023-09-18T13:18:24;3.03;;;1.00;;
78013;SDS011;67222;50.182;8.734;2023-09-18T13:20:50;2.53;;;0.93;;
78013;SDS011;67222;50.182;8.734;2023-09-18T13:23:16;4.13;;;1.10;;
78013;SDS011;67222;50.182;8.734;2023-09-18T13:25:42;2.78;;;0.98;;
78013;SDS011;67222;50.182;8.734;2023-09-18T13:28:09;2.38;;;1.05;;
78013;SDS011;67222;50.182;8.734;2023-09-18T13:30:36;6.50;;;1.30;;
78013;SDS011;67222;50.182;8.734;2023-09-18T13:33:12;3.67;;;1.30;;
78013;SDS011;67222;50.182;8.734;2023-09-18T13:35:41;4.30;;;1.20;;
78013;SDS011;67222;50.182;8.734;2023-09-18T13:38:08;3.72;;;0.90;;
78013;SDS011;67222;50.182;8.734;2023-09-18T13:40:36;4.35;;;1.27;;
78013;SDS011;67222;50.182;8.734;2023-09-18T13:43:02;3.05;;;1.05;;
78013;SDS011;67222;50.182;8.734;2023-09-18T13:45:29;3.05;;;1.45;;
78013;SDS011;67222;50.182;8.734;2023-09-18T13:47:57;4.07;;;1.20;;
78013;SDS011;67222;50.182;8.734;2023-09-18T13:50:24;4.20;;;1.10;;
78013;SDS011;67222;50.182;8.734;2023-09-18T13:52:49;3.70;;;1.10;;
78013;SDS011;67222;50.182;8.734;2023-09-18T13:55:14;5.67;;;1.10;;
78013;SDS011;67222;50.182;8.734;2023-09-18T13:57:39;3.23;;;1.20;;
78013;SDS011;67222;50.182;8.734;2023-09-18T14:00:05;3.30;;;1.40;;
78013;SDS011;67222;50.182;8.734;2023-09-18T14:02:35;3.30;;;1.00;;
78013;SDS011;67222;50.182;8.734;2023-09-18T14:05:01;3.15;;;1.30;;
78013;SDS011;67222;50.182;8.734;2023-09-18T14:07:28;2.10;;;0.90;;
78013;SDS011;67222;50.182;8.734;2023-09-18T14:09:53;2.28;;;0.90;;
78013;SDS011;67222;50.182;8.734;2023-09-18T14:12:19;3.70;;;1.00;;
78013;SDS011;67222;50.182;8.734;2023-09-18T14:14:44;4.87;;;1.30;;
78013;SDS011;67222;50.182;8.734;2023-09-18T14:17:10;2.50;;;1.10;;
78013;SDS011;67222;50.182;8.734;2023-09-18T14:19:35;2.35;;;1.20;;
78013;SDS011;67222;50.182;8.734;2023-09-18T14:22:03;3.03;;;1.15;;
78013;SDS011;67222;50.182;8.734;2023-09-18T14:24:30;4.70;;;1.30;;
78013;SDS011;67222;50.182;8.734;2023-09-18T14:26:59;3.25;;;0.95;;
78013;SDS011;67222;50.182;8.734;2023-09-18T14:29:26;4.95;;;1.45;;
78013;SDS011;67222;50.182;8.734;2023-09-18T14:31:51;1.88;;;1.10;;
78013;SDS011;67222;50.182;8.734;2023-09-18T14:34:17;3.55;;;1.55;;
78013;SDS011;67222;50.182;8.734;2023-09-18T14:36:42;3.70;;;1.27;;
78013;SDS011;67222;50.182;8.734;2023-09-18T14:39:09;3.65;;;1.00;;
78013;SDS011;67222;50.182;8.734;2023-09-18T14:41:35;4.75;;;1.65;;
78013;SDS011;67222;50.182;8.734;2023-09-18T14:44:01;5.03;;;1.20;;
78013;SDS011;67222;50.182;8.734;2023-09-18T14:48:55;2.45;;;1.08;;
78013;SDS011;67222;50.182;8.734;2023-09-18T14:51:20;4.43;;;1.30;;
78013;SDS011;67222;50.182;8.734;2023-09-18T14:53:45;3.60;;;1.27;;
78013;SDS011;67222;50.182;8.734;2023-09-18T14:56:11;4.35;;;1.20;;
78013;SDS011;67222;50.182;8.734;2023-09-18T14:58:36;3.65;;;1.50;;
78013;SDS011;67222;50.182;8.734;2023-09-18T15:01:01;3.23;;;1.50;;
78013;SDS011;67222;50.182;8.734;2023-09-18T15:03:27;3.20;;;1.15;;
78013;SDS011;67222;50.182;8.734;2023-09-18T15:05:53;4.78;;;1.77;;
78013;SDS011;67222;50.182;8.734;2023-09-18T15:08:20;2.47;;;1.20;;
78013;SDS011;67222;50.182;8.734;2023-09-18T15:10:46;3.90;;;1.40;;
78013;SDS011;67222;50.182;8.734;2023-09-18T15:13:12;3.75;;;1.38;;
78013;SDS011;67222;50.182;8.734;2023-09-18T15:15:38;6.95;;;1.58;;
78013;SDS011;67222;50.182;8.734;2023-09-18T15:18:04;2.50;;;1.50;;
78013;SDS011;67222;50.182;8.734;2023-09-18T15:20:29;5.00;;;1.50;;
78013;SDS011;67222;50.182;8.734;2023-09-18T15:22:54;4.10;;;1.30;;
78013;SDS011;67222;50.182;8.734;2023-09-18T15:25:21;5.32;;;1.77;;
78013;SDS011;67222;50.182;8.734;2023-09-18T15:27:46;13.95;;;10.50;;
78013;SDS011;67222;50.182;8.734;2023-09-18T15:30:12;3.30;;;1.33;;
78013;SDS011;67222;50.182;8.734;2023-09-18T15:32:53;5.13;;;1.42;;
78013;SDS011;67222;50.182;8.734;2023-09-18T15:35:20;3.58;;;1.65;;
78013;SDS011;67222;50.182;8.734;2023-09-18T15:37:47;2.90;;;1.40;;
78013;SDS011;67222;50.182;8.734;2023-09-18T15:40:12;2.97;;;1.10;;
78013;SDS011;67222;50.182;8.734;2023-09-18T15:42:41;4.15;;;1.30;;
78013;SDS011;67222;50.182;8.734;2023-09-18T15:45:07;2.60;;;1.20;;
78013;SDS011;67222;50.182;8.734;2023-09-18T15:47:36;2.90;;;1.00;;
78013;SDS011;67222;50.182;8.734;2023-09-18T15:50:03;3.53;;;1.25;;
78013;SDS011;67222;50.182;8.734;2023-09-18T15:52:31;3.40;;;1.40;;
78013;SDS011;67222;50.182;8.734;2023-09-18T15:55:00;4.28;;;1.45;;
78013;SDS011;67222;50.182;8.734;2023-09-18T15:57:25;4.00;;;1.13;;
78013;SDS011;67222;50.182;8.734;2023-09-18T15:59:51;2.78;;;1.20;;
78013;SDS011;67222;50.182;8.734;2023-09-18T16:02:17;5.18;;;1.40;;
78013;SDS011;67222;50.182;8.734;2023-09-18T16:04:43;6.05;;;1.60;;
78013;SDS011;67222;50.182;8.734;2023-09-18T16:07:08;3.20;;;1.20;;
78013;SDS011;67222;50.182;8.734;2023-09-18T16:09:38;2.72;;;1.42;;
78013;SDS011;67222;50.182;8.734;2023-09-18T16:12:04;2.30;;;1.15;;
78013;SDS011;67222;50.182;8.734;2023-09-18T16:14:31;3.55;;;1.08;;
78013;SDS011;67222;50.182;8.734;2023-09-18T16:16:56;4.43;;;1.58;;
78013;SDS011;67222;50.182;8.734;2023-09-18T16:19:22;4.45;;;1.70;;
78013;SDS011;67222;50.182;8.734;2023-09-18T16:21:48;4.55;;;1.40;;
78013;SDS011;67222;50.182;8.734;2023-09-18T16:24:13;3.97;;;1.30;;
78013;SDS011;67222;50.182;8.734;2023-09-18T16:26:40;3.58;;;1.40;;
78013;SDS011;67222;50.182;8.734;2023-09-18T16:29:06;4.50;;;1.52;;
78013;SDS011;67222;50.182;8.734;2023-09-18T16:31:31;3.75;;;1.40;;
78013;SDS011;67222;50.182;8.734;2023-09-18T16:33:58;3.13;;;1.00;;
78013;SDS011;67222;50.182;8.734;2023-09-18T16:36:23;4.10;;;1.35;;
78013;SDS011;67222;50.182;8.734;2023-09-18T16:38:51;3.70;;;1.20;;
78013;SDS011;67222;50.182;8.734;2023-09-18T16:41:16;4.87;;;1.33;;
78013;SDS011;67222;50.182;8.734;2023-09-18T16:43:41;4.77;;;1.43;;
78013;SDS011;67222;50.182;8.734;2023-09-18T16:46:06;4.00;;;1.10;;
78013;SDS011;67222;50.182;8.734;2023-09-18T16:48:32;4.47;;;1.33;;
78013;SDS011;67222;50.182;8.734;2023-09-18T16:50:59;4.07;;;1.40;;
78013;SDS011;67222;50.182;8.734;2023-09-18T16:53:25;3.08;;;1.08;;
78013;SDS011;67222;50.182;8.734;2023-09-18T16:55:51;3.38;;;1.35;;
78013;SDS011;67222;50.182;8.734;2023-09-18T16:58:16;3.25;;;1.27;;
78013;SDS011;67222;50.182;8.734;2023-09-18T17:00:42;2.70;;;1.15;;
78013;SDS011;67222;50.182;8.734;2023-09-18T17:03:07;2.60;;;1.25;;
78013;SDS011;67222;50.182;8.734;2023-09-18T17:05:33;4.18;;;1.35;;
78013;SDS011;67222;50.182;8.734;2023-09-18T17:08:00;4.13;;;1.35;;
78013;SDS011;67222;50.182;8.734;2023-09-18T17:10:25;3.72;;;1.42;;
78013;SDS011;67222;50.182;8.734;2023-09-18T17:12:51;3.70;;;1.50;;
78013;SDS011;67222;50.182;8.734;2023-09-18T17:15:16;4.43;;;1.35;;
78013;SDS011;67222;50.182;8.734;2023-09-18T17:17:41;4.03;;;1.17;;
78013;SDS011;67222;50.182;8.734;2023-09-18T17:20:07;2.57;;;1.30;;
78013;SDS011;67222;50.182;8.734;2023-09-18T17:22:32;3.40;;;1.17;;
78013;SDS011;67222;50.182;8.734;2023-09-18T17:24:58;2.80;;;1.13;;
78013;SDS011;67222;50.182;8.734;2023-09-18T17:27:24;3.63;;;1.35;;
78013;SDS011;67222;50.182;8.734;2023-09-18T17:29:49;3.90;;;1.30;;
78013;SDS011;67222;50.182;8.734;2023-09-18T17:32:14;3.70;;;1.30;;
78013;SDS011;67222;50.182;8.734;2023-09-18T17:34:40;3.17;;;1.38;;
78013;SDS011;67222;50.182;8.734;2023-09-18T17:37:06;2.50;;;1.20;;
78013;SDS011;67222;50.182;8.734;2023-09-18T17:39:31;3.60;;;1.27;;
78013;SDS011;67222;50.182;8.734;2023-09-18T17:41:57;4.77;;;2.43;;
78013;SDS011;67222;50.182;8.734;2023-09-18T17:44:22;5.03;;;1.70;;
78013;SDS011;67222;50.182;8.734;2023-09-18T17:46:47;3.70;;;1.20;;
78013;SDS011;67222;50.182;8.734;2023-09-18T17:49:13;1.83;;;1.00;;
78013;SDS011;67222;50.182;8.734;2023-09-18T17:51:39;3.35;;;1.48;;
78013;SDS011;67222;50.182;8.734;2023-09-18T17:54:04;3.63;;;1.20;;
78013;SDS011;67222;50.182;8.734;2023-09-18T17:56:30;4.88;;;1.40;;
78013;SDS011;67222;50.182;8.734;2023-09-18T17:58:56;4.07;;;1.52;;
78013;SDS011;67222;50.182;8.734;2023-09-18T18:01:21;3.70;;;1.20;;
78013;SDS011;67222;50.182;8.734;2023-09-18T18:03:46;2.70;;;1.30;;
78013;SDS011;67222;50.182;8.734;2023-09-18T18:06:13;3.55;;;1.20;;
78013;SDS011;67222;50.182;8.734;2023-09-18T18:08:39;3.42;;;1.30;;
78013;SDS011;67222;50.182;8.734;2023-09-18T18:11:04;4.33;;;1.20;;
78013;SDS011;67222;50.182;8.734;2023-09-18T18:13:30;3.83;;;0.95;;
78013;SDS011;67222;50.182;8.734;2023-09-18T18:15:56;2.63;;;1.08;;
78013;SDS011;67222;50.182;8.734;2023-09-18T18:18:21;2.87;;;1.17;;
78013;SDS011;67222;50.182;8.734;2023-09-18T18:20:46;4.13;;;1.30;;
78013;SDS011;67222;50.182;8.734;2023-09-18T18:23:12;3.07;;;1.27;;
78013;SDS011;67222;50.182;8.734;2023-09-18T18:25:38;2.72;;;1.25;;
78013;SDS011;67222;50.182;8.734;2023-09-18T18:28:04;2.92;;;1.52;;
78013;SDS011;67222;50.182;8.734;2023-09-18T18:30:29;6.05;;;1.40;;
78013;SDS011;67222;50.182;8.734;2023-09-18T18:32:55;3.05;;;1.27;;
78013;SDS011;67222;50.182;8.734;2023-09-18T18:35:20;3.03;;;1.20;;
78013;SDS011;67222;50.182;8.734;2023-09-18T18:37:48;3.22;;;1.30;;
78013;SDS011;67222;50.182;8.734;2023-09-18T18:40:15;2.50;;;1.17;;
78013;SDS011;67222;50.182;8.734;2023-09-18T18:42:42;2.47;;;1.02;;
78013;SDS011;67222;50.182;8.734;2023-09-18T18:45:08;2.22;;;1.20;;
78013;SDS011;67222;50.182;8.734;2023-09-18T18:47:33;2.47;;;1.08;;
78013;SDS011;67222;50.182;8.734;2023-09-18T18:49:59;3.67;;;1.37;;
78013;SDS011;67222;50.182;8.734;2023-09-18T18:52:24;3.88;;;1.23;;
78013;SDS011;67222;50.182;8.734;2023-09-18T18:54:49;2.80;;;1.30;;
78013;SDS011;67222;50.182;8.734;2023-09-18T18:57:16;2.10;;;1.00;;
78013;SDS011;67222;50.182;8.734;2023-09-18T18:59:42;2.60;;;1.02;;
78013;SDS011;67222;50.182;8.734;2023-09-18T19:02:07;3.42;;;1.30;;
78013;SDS011;67222;50.182;8.734;2023-09-18T19:04:32;2.57;;;1.10;;
78013;SDS011;67222;50.182;8.734;2023-09-18T19:06:59;2.47;;;1.15;;
78013;SDS011;67222;50.182;8.734;2023-09-18T19:09:25;3.35;;;1.00;;
78013;SDS011;67222;50.182;8.734;2023-09-18T19:11:51;3.85;;;1.10;;
78013;SDS011;67222;50.182;8.734;2023-09-18T19:14:17;3.00;;;1.05;;
78013;SDS011;67222;50.182;8.734;2023-09-18T19:16:42;3.20;;;1.40;;
78013;SDS011;67222;50.182;8.734;2023-09-18T19:19:07;4.30;;;1.10;;
78013;SDS011;67222;50.182;8.734;2023-09-18T19:21:33;4.45;;;0.93;;
78013;SDS011;67222;50.182;8.734;2023-09-18T19:23:59;1.98;;;0.95;;
78013;SDS011;67222;50.182;8.734;2023-09-18T19:26:25;3.80;;;1.08;;
78013;SDS011;67222;50.182;8.734;2023-09-18T19:28:51;1.92;;;0.90;;